Archival Weather

Republic

Farmingdale, New York (KFRG)

Report from: Wednesday, January 24, 2024 6:32 PM EST
Current time: Monday, June 17, 2024 3:25 AM EDT

Current weather – Weather history – Daily summaries
Weather forecast

Present weatherMist
Temperature6.1°C (43.0°F)
Dew point6.1°C (43.0°F)
Winds Calm
Visibility1 mi. (1.6 km)
Clouds Ceiling: Broken clouds 300 ft. (91 m)
Overcast 900 ft. (274 m)
Altimeter30.36 in.Hg (1028 mB)
Relative humidity100 %
Density altitude-1,440 ft. (-439 m)
Remarks Automated weather observing station with precipitation discriminator
Flight conditions Low Instrument Meteorological Conditions
Raw dataKFRG 242332Z 00000KT 1SM BR BKN003 OVC009 06/06 A3036 RMK AO2 T00610061
An error has occurred. This application may no longer respond until reloaded. Reload 🗙